HE36 weather

Bir Jifjafah Airport
North Sinai Governorate, Egypt

Public forecast

Using degrees Celsius for public forecast. Weather courtesy of forecast.io.

Closest aviation weather report (METAR) to Bir Jifjafah Airport

Report is more than 6 hours old.

Closest report is El Arish International Airport, 53.3 nm (98.7 km) NE. Retrieved 2019/09/02 14:00 UTC (2 months ago):

HEAR 021400Z NI

Closest aviation forecast (TAF) to Bir Jifjafah Airport

Closest forecast is El Arish International Airport, 53.3 nm (98.7 km) NE. Retrieved 2019/10/18 18:09 UTC (2 hours ago):

TAF HEAR 181700Z 1818/1924 VRB03KT 9999 SCT025 BECMG 1906/1908 34008KT BECMG 1916/1918 VRB03KT